Aeroporto :
LOGIN :

Iscrizione | Disclaimer

   EN    FR    IT 

 










Sommario :    VFR   VFR Marginale   IFR   IFR Intensivo   IFR Molto Intensivo
Visibilità : 
Base nubi : 
>= 8 km
>= 3000ft
5 / 8 km
1000 / 3000 ft
1500m / 5 km
500 / 1000 ft
800 / 1500m
200 / 500 ft
< 800m
< 200 ft
Simboli :   Temporali  Nebbia  Neve Forte  Precipitazioni Forti  Vento > 20 kt
SIGMETs :   Varie  Temporali  Ghiacco  Turbolenza  Onda orograficha  Ceneri Vulcaniche






- Altitudine del aeroporto : 525 ft
- Codice IATA : VAF


LFLU - Valence

ULTIMO METAR :
  • 121030Z AUTO 01012KT CAVOK 10/03 Q1009

METARs OBSOLETI :
  • 121000Z AUTO 36010KT CAVOK 10/04 Q1009
  • 120930Z AUTO 01008KT CAVOK 08/05 Q1009
  • 120900Z AUTO 36008KT CAVOK 07/05 Q1010
  • 120830Z AUTO 35010KT CAVOK 06/04 Q1010
  • 120800Z AUTO 34010KT CAVOK 05/04 Q1010

TAF N/A



MetMap, La meteo Aeronautica in un colpo d'occhio ! - Copyright ORBIFLY Dicembre 2007 - Disclaimer

ORBIFLY MET'MAP TEAM :

Programmazione e sviluppo : Alexandra Zaïnal
Concezione e sviluppo : Baudouin d'Aumeries
Co-Programmazione e sviluppo : Marc-Olivier Méhu
Supporto tecnico e logistico : Manuel Goepfert
Aiuto per la traduzione : Arnaldo La Scala

Contatto : metmap@orbifly.com




FONTI E CREDITI :

   NOAA